createdAt,value
2023-04-02T00:01:40.154Z,0.70
2023-04-02T00:04:14.210Z,0.50
2023-04-02T00:06:50.137Z,0.75
2023-04-02T00:09:22.105Z,0.50
2023-04-02T00:11:49.678Z,0.40
2023-04-02T00:14:31.782Z,0.50
2023-04-02T00:16:58.906Z,0.60
2023-04-02T00:19:37.592Z,0.60
2023-04-02T00:22:06.375Z,0.70
2023-04-02T00:24:32.850Z,0.88
2023-04-02T00:26:59.370Z,0.80
2023-04-02T00:29:25.848Z,0.60
2023-04-02T00:31:53.014Z,0.65
2023-04-02T00:34:31.428Z,0.50
2023-04-02T00:36:57.887Z,0.80
2023-04-02T00:39:29.110Z,0.63
2023-04-02T00:42:05.755Z,0.50
2023-04-02T00:44:44.739Z,0.70
2023-04-02T00:47:21.344Z,0.80
2023-04-02T00:49:48.788Z,0.68
2023-04-02T00:52:17.364Z,0.80
2023-04-02T00:54:48.176Z,0.73
2023-04-02T00:57:17.846Z,1.20
2023-04-02T01:00:19.820Z,0.90
2023-04-02T01:03:13.011Z,1.33
2023-04-02T01:05:39.826Z,1.20
2023-04-02T01:08:12.349Z,1.13
2023-04-02T01:10:47.937Z,1.20
2023-04-02T01:13:25.512Z,0.73
2023-04-02T01:16:16.038Z,0.80
2023-04-02T01:18:58.211Z,0.90
2023-04-02T01:21:43.955Z,0.90
2023-04-02T01:24:13.689Z,0.60
2023-04-02T01:26:44.586Z,0.70
2023-04-02T01:29:19.475Z,0.90
2023-04-02T01:31:46.199Z,0.80
2023-04-02T01:34:15.386Z,0.77
2023-04-02T01:36:56.987Z,0.60
2023-04-02T01:39:42.635Z,0.60
2023-04-02T01:42:18.349Z,0.60
2023-04-02T01:44:51.382Z,1.00
2023-04-02T01:47:22.557Z,0.75
2023-04-02T01:49:49.046Z,0.85
2023-04-02T01:52:25.572Z,0.50
2023-04-02T01:54:52.393Z,0.70
2023-04-02T01:57:18.954Z,0.68
2023-04-02T01:59:45.969Z,1.00
2023-04-02T02:02:13.364Z,0.82
2023-04-02T02:04:39.920Z,0.80
2023-04-02T02:07:10.332Z,0.77
2023-04-02T02:09:37.100Z,0.90
2023-04-02T02:12:04.277Z,0.55
2023-04-02T02:14:31.083Z,0.80
2023-04-02T02:17:02.111Z,0.77
2023-04-02T02:19:46.954Z,0.60
2023-04-02T02:22:29.122Z,0.80
2023-04-02T02:24:56.647Z,0.80
2023-04-02T02:27:23.011Z,0.90
2023-04-02T02:29:51.506Z,0.73
2023-04-02T02:32:18.253Z,0.70
2023-04-02T02:34:48.323Z,0.90
2023-04-02T02:37:17.649Z,0.73
2023-04-02T02:39:44.951Z,0.80
2023-04-02T02:42:37.250Z,1.10
2023-04-02T02:45:06.297Z,0.83
2023-04-02T02:47:34.654Z,1.00
2023-04-02T02:50:03.590Z,0.98
2023-04-02T02:52:35.771Z,0.80
2023-04-02T02:55:05.218Z,0.85
2023-04-02T02:57:39.820Z,1.23
2023-04-02T03:00:09.580Z,0.93
2023-04-02T03:02:36.869Z,1.38
2023-04-02T03:05:04.897Z,1.10
2023-04-02T03:07:31.352Z,1.63
2023-04-02T03:10:00.555Z,2.35
2023-04-02T03:12:51.421Z,1.55
2023-04-02T03:16:02.602Z,1.02
2023-04-02T03:18:31.638Z,1.15
2023-04-02T03:21:01.327Z,1.50
2023-04-02T03:23:35.693Z,1.63
2023-04-02T03:26:12.260Z,1.48
2023-04-02T03:28:44.049Z,1.30
2023-04-02T03:31:15.862Z,1.10
2023-04-02T03:33:44.513Z,1.43
2023-04-02T03:36:22.686Z,1.40
2023-04-02T03:38:57.453Z,1.75
2023-04-02T03:41:30.851Z,2.30
2023-04-02T03:43:59.229Z,2.10
2023-04-02T03:46:42.364Z,1.08
2023-04-02T03:49:17.044Z,1.10
2023-04-02T03:51:57.911Z,1.00
2023-04-02T03:54:24.388Z,0.80
2023-04-02T03:56:50.856Z,1.13
2023-04-02T03:59:23.269Z,0.93
2023-04-02T04:01:56.855Z,1.25
2023-04-02T04:04:23.395Z,1.15
2023-04-02T04:06:50.610Z,1.10
2023-04-02T04:09:35.434Z,1.23
2023-04-02T04:12:29.813Z,0.80
2023-04-02T04:15:07.250Z,0.90
2023-04-02T04:17:42.451Z,1.05
2023-04-02T04:20:21.920Z,0.77
2023-04-02T04:22:49.883Z,0.88
2023-04-02T04:25:29.441Z,0.88
2023-04-02T04:28:05.481Z,1.02
2023-04-02T04:31:00.110Z,0.95
2023-04-02T04:33:34.500Z,0.90
2023-04-02T04:36:01.965Z,0.82
2023-04-02T04:38:39.451Z,1.10
2023-04-02T04:41:14.510Z,1.27
2023-04-02T04:43:52.742Z,0.75
2023-04-02T04:46:31.496Z,0.93
2023-04-02T04:49:00.181Z,1.33
2023-04-02T04:51:35.461Z,1.08
2023-04-02T04:54:01.949Z,1.38
2023-04-02T04:56:29.237Z,1.20
2023-04-02T04:59:11.702Z,1.30
2023-04-02T05:01:42.657Z,1.15
2023-04-02T05:04:16.903Z,1.10
2023-04-02T05:06:45.531Z,1.45
2023-04-02T05:09:28.443Z,1.58
2023-04-02T05:12:16.124Z,1.60
2023-04-02T05:14:48.512Z,1.30
2023-04-02T05:17:14.863Z,1.77
2023-04-02T05:19:51.796Z,1.30
2023-04-02T05:22:30.047Z,1.42
2023-04-02T05:25:20.844Z,1.70
2023-04-02T05:27:52.433Z,1.40
2023-04-02T05:30:24.797Z,1.52
2023-04-02T05:33:00.606Z,1.70
2023-04-02T05:35:32.094Z,1.80
2023-04-02T05:37:59.160Z,1.40
2023-04-02T05:40:40.857Z,1.38
2023-04-02T05:43:10.928Z,1.35
2023-04-02T05:45:38.989Z,1.05
2023-04-02T05:48:30.833Z,1.60
2023-04-02T05:50:58.771Z,1.52
2023-04-02T05:53:30.548Z,1.33
2023-04-02T05:56:04.924Z,1.40
2023-04-02T05:58:37.518Z,1.70
2023-04-02T06:01:12.748Z,1.67
2023-04-02T06:04:02.362Z,1.40
2023-04-02T06:06:44.960Z,1.80
2023-04-02T06:09:49.485Z,1.60
2023-04-02T06:12:27.703Z,1.77
2023-04-02T06:14:54.192Z,1.40
2023-04-02T06:17:20.856Z,1.73
2023-04-02T06:19:47.906Z,2.00
2023-04-02T06:22:35.442Z,2.00
2023-04-02T06:25:05.723Z,1.80
2023-04-02T06:27:32.247Z,1.30
2023-04-02T06:30:01.079Z,1.63
2023-04-02T06:32:27.595Z,1.38
2023-04-02T06:34:54.095Z,1.20
2023-04-02T06:37:38.616Z,1.10
2023-04-02T06:40:05.837Z,0.90
2023-04-02T06:42:37.252Z,0.68
2023-04-02T06:45:04.167Z,0.85
2023-04-02T06:47:38.632Z,1.50
2023-04-02T06:50:07.123Z,1.23
2023-04-02T06:53:00.578Z,1.20
2023-04-02T06:55:49.125Z,1.10
2023-04-02T06:58:16.480Z,1.90
2023-04-02T07:00:44.315Z,1.17
2023-04-02T07:03:21.289Z,1.35
2023-04-02T07:05:47.826Z,1.17
2023-04-02T07:08:14.390Z,0.85
2023-04-02T07:10:41.056Z,0.80
2023-04-02T07:13:08.275Z,1.13
2023-04-02T07:15:34.913Z,1.30
2023-04-02T07:18:01.875Z,1.20
2023-04-02T07:20:30.415Z,1.98
2023-04-02T07:22:57.163Z,1.30
2023-04-02T07:25:24.412Z,1.45
2023-04-02T07:27:52.046Z,0.90
2023-04-02T07:30:18.666Z,0.55
2023-04-02T07:32:45.490Z,0.60
2023-04-02T07:35:12.047Z,0.90
2023-04-02T07:37:38.643Z,0.60
2023-04-02T07:40:09.886Z,0.70
2023-04-02T07:42:36.364Z,0.85
2023-04-02T07:45:05.767Z,0.80
2023-04-02T07:47:32.737Z,1.05
2023-04-02T07:49:59.219Z,0.70
2023-04-02T07:52:25.717Z,0.80
2023-04-02T07:54:52.286Z,0.77
2023-04-02T07:57:18.924Z,0.52
2023-04-02T07:59:47.268Z,0.65
2023-04-02T08:02:21.119Z,0.60
2023-04-02T08:04:51.282Z,0.55
2023-04-02T08:07:19.015Z,0.45
2023-04-02T08:09:45.523Z,0.30
2023-04-02T08:12:14.974Z,0.63
2023-04-02T08:14:41.481Z,0.65
2023-04-02T08:17:07.967Z,0.93
2023-04-02T08:19:44.330Z,0.80
2023-04-02T08:22:18.421Z,0.82
2023-04-02T08:24:44.890Z,0.82
2023-04-02T08:27:13.810Z,0.70
2023-04-02T08:29:40.306Z,0.60
2023-04-02T08:32:07.589Z,0.77
2023-04-02T08:34:34.061Z,0.50
2023-04-02T08:37:00.673Z,0.50
2023-04-02T08:39:29.364Z,0.70
2023-04-02T08:41:58.397Z,1.40
2023-04-02T08:44:37.396Z,1.70
2023-04-02T08:47:05.005Z,0.70
2023-04-02T08:49:49.489Z,0.57
2023-04-02T08:52:27.228Z,0.70
2023-04-02T08:54:56.158Z,0.70
2023-04-02T08:57:25.589Z,0.55
2023-04-02T08:59:58.229Z,0.70
2023-04-02T09:02:29.995Z,1.60
2023-04-02T09:04:57.896Z,0.63
2023-04-02T09:07:24.406Z,0.60
2023-04-02T09:09:50.999Z,0.70
2023-04-02T09:12:26.120Z,0.50
2023-04-02T09:15:11.124Z,0.52
2023-04-02T09:17:50.661Z,0.50
2023-04-02T09:20:25.909Z,0.70
2023-04-02T09:22:53.076Z,0.60
2023-04-02T09:25:25.463Z,0.40
2023-04-02T09:27:53.215Z,0.70
2023-04-02T09:30:29.687Z,0.70
2023-04-02T09:32:58.032Z,0.63
2023-04-02T09:35:27.080Z,0.77
2023-04-02T09:38:33.011Z,0.80
2023-04-02T09:41:19.390Z,0.85
2023-04-02T09:43:45.890Z,0.90
2023-04-02T09:46:23.278Z,0.73
2023-04-02T09:48:53.665Z,0.70
2023-04-02T09:51:22.024Z,1.17
2023-04-02T09:53:50.031Z,0.40
2023-04-02T09:56:23.564Z,1.63
2023-04-02T09:59:03.456Z,0.70
2023-04-02T10:01:32.294Z,0.57
2023-04-02T10:03:59.944Z,0.57
2023-04-02T10:06:28.252Z,0.70
2023-04-02T10:08:54.781Z,0.60
2023-04-02T10:11:43.638Z,0.77
2023-04-02T10:14:23.400Z,1.52
2023-04-02T10:16:52.383Z,0.90
2023-04-02T10:19:26.538Z,0.90
2023-04-02T10:21:54.389Z,1.33
2023-04-02T10:24:21.083Z,0.60
2023-04-02T10:26:59.698Z,0.43
2023-04-02T10:29:35.721Z,0.50
2023-04-02T10:32:11.246Z,0.90
2023-04-02T10:34:52.795Z,1.40
2023-04-02T10:37:41.424Z,1.10
2023-04-02T10:40:23.768Z,1.10
2023-04-02T10:43:03.317Z,1.10
2023-04-02T10:45:35.494Z,1.05
2023-04-02T10:48:30.606Z,0.85
2023-04-02T10:51:16.669Z,1.02
2023-04-02T10:53:58.531Z,0.60
2023-04-02T10:56:24.981Z,1.00
2023-04-02T10:59:03.968Z,0.70
2023-04-02T11:01:30.469Z,1.10
2023-04-02T11:04:00.448Z,0.93
2023-04-02T11:06:30.195Z,1.00
2023-04-02T11:09:04.971Z,1.60
2023-04-02T11:11:36.581Z,1.23
2023-04-02T11:14:21.992Z,1.10
2023-04-02T11:16:49.021Z,1.67
2023-04-02T11:19:15.807Z,1.20
2023-04-02T11:22:01.301Z,1.00
2023-04-02T11:24:30.008Z,1.23
2023-04-02T11:27:11.407Z,1.20
2023-04-02T11:30:07.606Z,1.15
2023-04-02T11:32:45.234Z,2.47
2023-04-02T11:35:31.714Z,0.85
2023-04-02T11:38:04.198Z,0.88
2023-04-02T11:40:44.599Z,0.93
2023-04-02T11:43:33.089Z,0.90
2023-04-02T11:46:18.569Z,0.80
2023-04-02T11:48:45.290Z,4.78
2023-04-02T11:51:22.260Z,0.60
2023-04-02T11:53:53.830Z,0.68
2023-04-02T11:56:32.140Z,0.70
2023-04-02T11:59:05.126Z,0.55
2023-04-02T12:02:06.031Z,0.63
2023-04-02T12:05:04.288Z,0.60
2023-04-02T12:07:53.305Z,0.43
2023-04-02T12:10:32.429Z,0.52
2023-04-02T12:12:59.033Z,0.60
2023-04-02T12:15:48.811Z,0.75
2023-04-02T12:18:21.641Z,0.52
2023-04-02T12:23:20.219Z,1.60
2023-04-02T12:25:58.688Z,0.60
2023-04-02T12:28:28.646Z,0.50
2023-04-02T12:31:10.139Z,0.40
2023-04-02T12:33:37.604Z,0.68
2023-04-02T12:36:09.917Z,0.50
2023-04-02T12:38:55.397Z,0.50
2023-04-02T12:41:24.413Z,0.40
2023-04-02T12:44:01.669Z,0.70
2023-04-02T12:46:28.773Z,0.68
2023-04-02T12:48:58.126Z,0.63
2023-04-02T12:51:25.800Z,0.70
2023-04-02T12:53:53.828Z,0.90
2023-04-02T12:56:24.169Z,0.70
2023-04-02T12:59:30.691Z,0.70
2023-04-02T13:02:01.488Z,0.73
2023-04-02T13:04:28.069Z,0.70
2023-04-02T13:06:58.388Z,0.75
2023-04-02T13:09:48.205Z,0.68
2023-04-02T13:12:37.372Z,0.68
2023-04-02T13:15:08.014Z,0.70
2023-04-02T13:17:45.617Z,0.90
2023-04-02T13:20:41.876Z,0.80
2023-04-02T13:23:27.237Z,0.80
2023-04-02T13:25:53.762Z,0.80
2023-04-02T13:28:20.461Z,1.13
2023-04-02T13:30:47.074Z,0.90
2023-04-02T13:33:14.262Z,0.90
2023-04-02T13:35:41.094Z,0.80
2023-04-02T13:38:08.605Z,0.90
2023-04-02T13:40:36.111Z,0.88
2023-04-02T13:43:03.673Z,0.73
2023-04-02T13:45:35.004Z,1.10
2023-04-02T13:48:01.924Z,1.10
2023-04-02T13:50:29.876Z,1.20
2023-04-02T13:52:58.116Z,0.90
2023-04-02T13:55:26.392Z,1.30
2023-04-02T13:57:52.939Z,1.20
2023-04-02T14:00:20.948Z,1.05
2023-04-02T14:02:51.039Z,1.30
2023-04-02T14:05:30.604Z,1.25
2023-04-02T14:08:10.694Z,1.42
2023-04-02T14:11:17.080Z,1.35
2023-04-02T14:13:56.745Z,1.67
2023-04-02T14:16:42.341Z,1.50
2023-04-02T14:19:33.318Z,2.10
2023-04-02T14:22:18.430Z,1.88
2023-04-02T14:24:47.509Z,2.15
2023-04-02T14:27:22.989Z,1.95
2023-04-02T14:29:52.227Z,2.78
2023-04-02T14:32:24.605Z,2.78
2023-04-02T14:35:15.321Z,4.82
2023-04-02T14:38:11.495Z,7.88
2023-04-02T14:40:59.633Z,2.67
2023-04-02T14:43:44.235Z,2.67
2023-04-02T14:46:10.849Z,2.22
2023-04-02T14:48:46.198Z,3.05
2023-04-02T14:51:16.110Z,2.40
2023-04-02T14:54:16.074Z,2.45
2023-04-02T14:56:49.836Z,2.30
2023-04-02T14:59:31.515Z,2.17
2023-04-02T15:02:03.995Z,2.20
2023-04-02T15:04:37.335Z,1.60
2023-04-02T15:07:07.716Z,1.92
2023-04-02T15:09:38.079Z,1.92
2023-04-02T15:12:09.916Z,1.85
2023-04-02T15:14:45.647Z,1.73
2023-04-02T15:17:12.260Z,1.95
2023-04-02T15:19:38.766Z,2.63
2023-04-02T15:22:26.484Z,2.67
2023-04-02T15:25:07.915Z,1.75
2023-04-02T15:27:52.046Z,1.50
2023-04-02T15:30:30.592Z,1.60
2023-04-02T15:32:59.185Z,2.83
2023-04-02T15:35:54.538Z,1.88
2023-04-02T15:38:22.746Z,1.95
2023-04-02T15:41:14.085Z,2.00
2023-04-02T15:43:54.693Z,1.80
2023-04-02T15:46:57.001Z,1.50
2023-04-02T15:49:51.540Z,1.20
2023-04-02T15:52:42.917Z,1.30
2023-04-02T15:55:27.970Z,1.30
2023-04-02T15:58:24.801Z,1.50
2023-04-02T16:01:08.421Z,1.55
2023-04-02T16:03:44.135Z,1.42
2023-04-02T16:06:25.551Z,1.33
2023-04-02T16:09:13.900Z,1.75
2023-04-02T16:11:40.537Z,1.50
2023-04-02T16:14:25.986Z,1.50
2023-04-02T16:16:52.769Z,1.23
2023-04-02T16:19:33.689Z,1.50
2023-04-02T16:22:21.629Z,2.42
2023-04-02T16:24:49.966Z,1.83
2023-04-02T16:27:38.531Z,1.65
2023-04-02T16:30:34.576Z,1.75
2023-04-02T16:33:10.045Z,1.60
2023-04-02T16:35:54.134Z,1.65
2023-04-02T16:38:20.740Z,1.55
2023-04-02T16:41:07.733Z,1.65
2023-04-02T16:43:58.405Z,1.70
2023-04-02T16:46:39.886Z,1.38
2023-04-02T16:49:20.224Z,1.40
2023-04-02T16:51:49.448Z,1.65
2023-04-02T16:54:19.216Z,1.60
2023-04-02T16:57:07.086Z,1.60
2023-04-02T17:00:05.999Z,1.15
2023-04-02T17:02:54.092Z,1.35
2023-04-02T17:05:25.754Z,1.50
2023-04-02T17:08:01.826Z,1.80
2023-04-02T17:10:30.728Z,1.80
2023-04-02T17:13:03.639Z,1.48
2023-04-02T17:18:19.811Z,1.85
2023-04-02T17:20:47.283Z,2.28
2023-04-02T17:23:14.128Z,1.60
2023-04-02T17:25:56.381Z,1.85
2023-04-02T17:28:26.154Z,2.28
2023-04-02T17:30:55.748Z,1.88
2023-04-02T17:33:25.088Z,2.17
2023-04-02T17:35:59.763Z,1.73
2023-04-02T17:38:48.915Z,2.00
2023-04-02T17:41:40.821Z,2.03
2023-04-02T17:44:16.507Z,3.35
2023-04-02T17:46:51.962Z,2.30
2023-04-02T17:49:45.817Z,2.17
2023-04-02T17:52:36.399Z,2.13
2023-04-02T17:55:21.052Z,2.00
2023-04-02T17:57:51.026Z,2.38
2023-04-02T18:00:20.647Z,2.30
2023-04-02T18:02:57.934Z,2.42
2023-04-02T18:05:38.785Z,2.20
2023-04-02T18:08:08.595Z,2.58
2023-04-02T18:10:54.314Z,2.60
2023-04-02T18:13:49.798Z,2.80
2023-04-02T18:16:25.827Z,2.63
2023-04-02T18:19:24.004Z,2.70
2023-04-02T18:22:12.536Z,2.83
2023-04-02T18:25:25.015Z,2.70
2023-04-02T18:27:58.264Z,2.70
2023-04-02T18:30:54.665Z,2.72
2023-04-02T18:33:46.049Z,3.25
2023-04-02T18:36:37.346Z,3.10
2023-04-02T18:39:10.333Z,3.17
2023-04-02T18:41:52.524Z,3.05
2023-04-02T18:44:46.512Z,2.93
2023-04-02T18:47:36.828Z,3.17
2023-04-02T18:50:16.482Z,2.72
2023-04-02T18:52:43.084Z,3.42
2023-04-02T18:55:17.618Z,2.97
2023-04-02T18:57:45.268Z,2.60
2023-04-02T19:00:30.792Z,3.20
2023-04-02T19:03:02.406Z,3.58
2023-04-02T19:05:35.189Z,5.43
2023-04-02T19:08:24.849Z,3.30
2023-04-02T19:10:53.703Z,3.47
2023-04-02T19:13:20.365Z,3.28
2023-04-02T19:16:01.954Z,2.63
2023-04-02T19:18:36.595Z,2.53
2023-04-02T19:21:38.364Z,2.63
2023-04-02T19:24:17.328Z,2.50
2023-04-02T19:26:47.637Z,2.55
2023-04-02T19:29:21.278Z,2.72
2023-04-02T19:31:52.291Z,2.60
2023-04-02T19:34:39.032Z,2.40
2023-04-02T19:37:16.832Z,2.95
2023-04-02T19:39:55.393Z,2.80
2023-04-02T19:42:49.333Z,2.75
2023-04-02T19:45:28.701Z,2.88
2023-04-02T19:47:56.106Z,2.42
2023-04-02T19:50:22.738Z,2.90
2023-04-02T19:52:49.232Z,3.05
2023-04-02T19:55:15.850Z,2.88
2023-04-02T19:57:42.381Z,2.60
2023-04-02T20:00:12.113Z,3.28
2023-04-02T20:02:38.752Z,2.80
2023-04-02T20:05:05.890Z,3.17
2023-04-02T20:07:32.327Z,3.10
2023-04-02T20:09:58.855Z,2.60
2023-04-02T20:12:25.534Z,3.20
2023-04-02T20:14:52.002Z,2.85
2023-04-02T20:17:18.459Z,3.10
2023-04-02T20:19:44.903Z,2.95
2023-04-02T20:22:11.361Z,2.67
2023-04-02T20:24:37.877Z,2.97
2023-04-02T20:27:04.360Z,2.95
2023-04-02T20:29:32.152Z,2.45
2023-04-02T20:31:58.784Z,3.00
2023-04-02T20:34:25.915Z,3.22
2023-04-02T20:36:53.583Z,2.67
2023-04-02T20:39:21.473Z,3.05
2023-04-02T20:41:48.158Z,2.97
2023-04-02T20:44:14.646Z,2.92
2023-04-02T20:46:41.658Z,3.25
2023-04-02T20:49:08.180Z,2.53
2023-04-02T20:51:34.647Z,2.50
2023-04-02T20:54:01.354Z,2.80
2023-04-02T20:56:27.922Z,2.53
2023-04-02T20:58:54.450Z,2.63
2023-04-02T21:01:25.986Z,2.53
2023-04-02T21:03:59.703Z,2.25
2023-04-02T21:06:27.796Z,2.58
2023-04-02T21:08:54.269Z,2.17
2023-04-02T21:11:22.368Z,2.45
2023-04-02T21:13:49.520Z,2.10
2023-04-02T21:16:17.681Z,1.85
2023-04-02T21:18:44.241Z,2.17
2023-04-02T21:21:13.551Z,4.85
2023-04-02T21:23:40.471Z,1.80
2023-04-02T21:26:07.210Z,1.70
2023-04-02T21:28:34.391Z,1.90
2023-04-02T21:31:21.711Z,1.77
2023-04-02T21:33:52.903Z,2.03
2023-04-02T21:36:25.562Z,1.85
2023-04-02T21:38:56.505Z,1.90
2023-04-02T21:41:30.273Z,1.65
2023-04-02T21:43:57.472Z,1.70
2023-04-02T21:46:26.042Z,1.55
2023-04-02T21:48:53.335Z,1.60
2023-04-02T21:51:22.193Z,1.77
2023-04-02T21:53:49.188Z,2.13
2023-04-02T21:56:16.635Z,1.85
2023-04-02T21:58:43.721Z,1.42
2023-04-02T22:01:16.841Z,1.60
2023-04-02T22:03:47.168Z,1.50
2023-04-02T22:06:15.820Z,1.60
2023-04-02T22:08:42.980Z,1.98
2023-04-02T22:11:33.391Z,1.58
2023-04-02T22:13:59.969Z,1.33
2023-04-02T22:16:27.837Z,1.60
2023-04-02T22:18:55.711Z,1.55
2023-04-02T22:21:22.376Z,1.50
2023-04-02T22:23:48.910Z,1.50
2023-04-02T22:26:16.264Z,1.60
2023-04-02T22:28:42.905Z,1.70
2023-04-02T22:31:12.585Z,1.60
2023-04-02T22:33:39.158Z,1.50
2023-04-02T22:36:06.062Z,1.90
2023-04-02T22:38:32.737Z,1.35
2023-04-02T22:41:07.616Z,1.42
2023-04-02T22:43:34.560Z,1.65
2023-04-02T22:46:01.326Z,1.45
2023-04-02T22:48:27.834Z,1.70
2023-04-02T22:50:54.365Z,1.63
2023-04-02T22:53:21.075Z,1.67
2023-04-02T22:55:47.667Z,2.00
2023-04-02T22:58:14.186Z,1.98
2023-04-02T23:00:41.073Z,2.10
2023-04-02T23:03:07.550Z,1.77
2023-04-02T23:05:34.004Z,1.45
2023-04-02T23:08:00.501Z,1.88
2023-04-02T23:10:30.559Z,1.60
2023-04-02T23:12:57.489Z,2.25
2023-04-02T23:15:23.958Z,1.77
2023-04-02T23:17:50.498Z,2.22
2023-04-02T23:20:17.114Z,1.83
2023-04-02T23:22:43.627Z,2.22
2023-04-02T23:25:10.200Z,2.20
2023-04-02T23:27:36.845Z,2.20
2023-04-02T23:30:03.951Z,2.13
2023-04-02T23:32:30.499Z,1.75
2023-04-02T23:34:56.986Z,1.88
2023-04-02T23:37:23.458Z,2.00
2023-04-02T23:39:49.978Z,1.80
2023-04-02T23:42:17.442Z,1.90
2023-04-02T23:44:43.906Z,2.20
2023-04-02T23:47:10.733Z,2.13
2023-04-02T23:49:37.230Z,2.13
2023-04-02T23:52:03.748Z,1.95
2023-04-02T23:54:30.310Z,1.70
2023-04-02T23:56:56.831Z,1.70
2023-04-02T23:59:23.343Z,2.13
